createdAt,value
2022-12-08T00:01:53.820Z,13.72
2022-12-08T00:04:21.014Z,12.93
2022-12-08T00:06:48.171Z,13.47
2022-12-08T00:09:20.070Z,12.82
2022-12-08T00:11:49.390Z,12.68
2022-12-08T00:14:16.589Z,13.50
2022-12-08T00:16:43.893Z,13.32
2022-12-08T00:19:11.192Z,12.96
2022-12-08T00:21:38.289Z,13.27
2022-12-08T00:24:05.830Z,13.24
2022-12-08T00:26:32.910Z,13.15
2022-12-08T00:29:01.489Z,13.39
2022-12-08T00:31:28.680Z,13.69
2022-12-08T00:33:56.290Z,13.47
2022-12-08T00:36:23.352Z,13.96
2022-12-08T00:38:50.472Z,14.05
2022-12-08T00:41:20.911Z,13.49
2022-12-08T00:43:47.989Z,14.34
2022-12-08T00:46:16.543Z,14.00
2022-12-08T00:48:43.650Z,14.12
2022-12-08T00:51:10.750Z,14.36
2022-12-08T00:53:37.851Z,14.25
2022-12-08T00:56:05.393Z,14.30
2022-12-08T00:58:32.454Z,14.53
2022-12-08T01:00:59.633Z,14.06
2022-12-08T01:03:28.342Z,13.58
2022-12-08T01:05:55.549Z,14.17
2022-12-08T01:08:22.701Z,13.83
2022-12-08T01:10:49.909Z,14.57
2022-12-08T01:13:17.030Z,14.33
2022-12-08T01:15:44.150Z,14.51
2022-12-08T01:18:11.248Z,14.59
2022-12-08T01:20:39.749Z,15.15
2022-12-08T01:23:06.850Z,15.22
2022-12-08T01:25:34.973Z,14.96
2022-12-08T01:28:02.030Z,15.51
2022-12-08T01:30:29.244Z,15.48
2022-12-08T01:32:57.490Z,15.47
2022-12-08T01:35:24.611Z,15.51
2022-12-08T01:37:53.213Z,15.72
2022-12-08T01:40:20.369Z,15.51
2022-12-08T01:42:47.539Z,16.22
2022-12-08T01:45:25.110Z,15.87
2022-12-08T01:47:56.947Z,16.08
2022-12-08T01:50:25.169Z,15.90
2022-12-08T01:52:57.611Z,16.11
2022-12-08T01:55:31.372Z,16.01
2022-12-08T01:58:08.069Z,15.99
2022-12-08T02:00:35.176Z,16.16
2022-12-08T02:03:04.936Z,15.99
2022-12-08T02:05:36.850Z,15.01
2022-12-08T02:08:08.965Z,16.04
2022-12-08T02:10:39.692Z,16.34
2022-12-08T02:13:11.329Z,16.75
2022-12-08T02:15:47.970Z,16.52
2022-12-08T02:18:37.432Z,15.94
2022-12-08T02:21:13.012Z,13.77
2022-12-08T02:23:54.275Z,14.93
2022-12-08T02:26:55.374Z,14.82
2022-12-08T02:30:01.066Z,13.81
2022-12-08T02:33:08.845Z,13.34
2022-12-08T02:35:46.316Z,14.74
2022-12-08T02:38:27.239Z,14.84
2022-12-08T02:41:13.597Z,14.69
2022-12-08T02:43:45.558Z,14.76
2022-12-08T02:46:20.188Z,14.80
2022-12-08T02:48:48.270Z,13.72
2022-12-08T02:51:16.879Z,14.25
2022-12-08T02:53:45.136Z,13.66
2022-12-08T02:56:27.897Z,14.88
2022-12-08T02:59:14.316Z,14.67
2022-12-08T03:02:10.160Z,14.13
2022-12-08T03:04:46.697Z,14.62
2022-12-08T03:07:25.160Z,13.74
2022-12-08T03:10:00.579Z,14.79
2022-12-08T03:12:36.126Z,14.24
2022-12-08T03:15:11.804Z,14.60
2022-12-08T03:17:46.087Z,14.66
2022-12-08T03:20:19.959Z,14.90
2022-12-08T03:22:52.900Z,15.43
2022-12-08T03:25:23.340Z,14.94
2022-12-08T03:27:52.440Z,14.82
2022-12-08T03:30:20.004Z,15.25
2022-12-08T03:32:54.980Z,14.32
2022-12-08T03:35:27.300Z,15.49
2022-12-08T03:38:04.859Z,14.72
2022-12-08T03:40:32.075Z,15.23
2022-12-08T03:42:59.280Z,15.00
2022-12-08T03:45:26.701Z,14.99
2022-12-08T03:47:53.759Z,14.97
2022-12-08T03:50:20.980Z,15.99
2022-12-08T03:52:48.100Z,16.87
2022-12-08T03:55:17.300Z,16.42
2022-12-08T03:57:44.706Z,15.86
2022-12-08T04:00:16.347Z,15.36
2022-12-08T04:02:43.691Z,16.16
2022-12-08T04:05:10.947Z,15.79
2022-12-08T04:07:38.124Z,15.32
2022-12-08T04:10:06.933Z,15.89
2022-12-08T04:12:35.800Z,16.12
2022-12-08T04:15:02.974Z,15.81
2022-12-08T04:17:30.022Z,15.51
2022-12-08T04:19:57.121Z,15.12
2022-12-08T04:22:24.241Z,15.87
2022-12-08T04:24:51.600Z,15.49
2022-12-08T04:27:18.880Z,15.29
2022-12-08T04:29:47.461Z,15.76
2022-12-08T04:32:14.680Z,16.31
2022-12-08T04:34:41.741Z,16.53
2022-12-08T04:37:08.900Z,17.12
2022-12-08T04:39:36.219Z,16.57
2022-12-08T04:42:03.420Z,16.49
2022-12-08T04:44:30.499Z,16.95
2022-12-08T04:46:59.206Z,16.18
2022-12-08T04:49:26.490Z,16.39
2022-12-08T04:51:53.521Z,16.57
2022-12-08T04:54:20.659Z,16.95
2022-12-08T04:56:47.840Z,16.71
2022-12-08T04:59:14.900Z,16.64
2022-12-08T05:01:42.142Z,18.21
2022-12-08T05:04:10.839Z,17.61
2022-12-08T05:06:37.921Z,16.38
2022-12-08T05:09:05.102Z,17.57
2022-12-08T05:11:32.204Z,16.51
2022-12-08T05:13:59.299Z,17.04
2022-12-08T05:16:26.565Z,17.37
2022-12-08T05:18:53.740Z,17.49
2022-12-08T05:21:22.321Z,16.82
2022-12-08T05:23:49.379Z,17.12
2022-12-08T05:26:16.539Z,17.69
2022-12-08T05:28:44.219Z,17.96
2022-12-08T05:31:12.789Z,17.28
2022-12-08T05:33:40.740Z,18.20
2022-12-08T05:36:09.040Z,18.13
2022-12-08T05:38:37.837Z,18.15
2022-12-08T05:41:06.319Z,17.64
2022-12-08T05:43:33.433Z,17.85
2022-12-08T05:46:00.619Z,17.54
2022-12-08T05:48:28.004Z,17.14
2022-12-08T05:50:56.322Z,18.49
2022-12-08T05:53:23.602Z,18.06
2022-12-08T05:55:52.212Z,17.95
2022-12-08T05:58:21.900Z,18.18
2022-12-08T06:00:50.002Z,18.27
2022-12-08T06:03:18.982Z,18.24
2022-12-08T06:05:47.860Z,17.58
2022-12-08T06:08:15.243Z,17.45
2022-12-08T06:10:44.601Z,16.81
2022-12-08T06:13:13.181Z,17.66
2022-12-08T06:15:41.600Z,18.09
2022-12-08T06:18:11.043Z,17.27
2022-12-08T06:20:38.360Z,18.44
2022-12-08T06:23:05.423Z,19.42
2022-12-08T06:25:32.577Z,19.08
2022-12-08T06:27:59.761Z,19.17
2022-12-08T06:30:28.481Z,18.96
2022-12-08T06:32:55.664Z,18.59
2022-12-08T06:35:22.867Z,19.66
2022-12-08T06:37:50.022Z,19.23
2022-12-08T06:40:17.405Z,18.49
2022-12-08T06:42:44.990Z,17.76
2022-12-08T06:45:14.023Z,17.37
2022-12-08T06:47:43.161Z,18.27
2022-12-08T06:50:12.094Z,17.37
2022-12-08T06:52:49.309Z,16.61
2022-12-08T06:55:50.760Z,16.76
2022-12-08T06:58:10.980Z,16.05
2022-12-08T07:00:38.321Z,16.14
2022-12-08T07:03:07.360Z,15.00
2022-12-08T07:05:34.561Z,15.40
2022-12-08T07:08:02.076Z,14.87
2022-12-08T07:10:30.080Z,15.58
2022-12-08T07:12:57.221Z,15.71
2022-12-08T07:15:24.321Z,14.75
2022-12-08T07:17:56.309Z,15.70
2022-12-08T07:20:28.356Z,14.39
2022-12-08T07:22:55.601Z,14.11
2022-12-08T07:25:23.046Z,14.04
2022-12-08T07:27:50.520Z,14.54
2022-12-08T07:30:17.840Z,14.83
2022-12-08T07:32:45.523Z,13.86
2022-12-08T07:35:13.241Z,13.77
2022-12-08T07:37:42.161Z,14.33
2022-12-08T07:40:11.140Z,13.72
2022-12-08T07:42:38.224Z,15.24
2022-12-08T07:45:07.060Z,14.61
2022-12-08T07:47:34.185Z,14.67
2022-12-08T07:50:01.332Z,14.11
2022-12-08T07:52:28.541Z,14.33
2022-12-08T07:54:57.122Z,15.23
2022-12-08T07:57:24.223Z,14.51
2022-12-08T07:59:51.260Z,15.37
2022-12-08T08:02:26.939Z,15.97
2022-12-08T08:04:54.477Z,15.61
2022-12-08T08:07:22.063Z,17.11
2022-12-08T08:09:49.271Z,18.35
2022-12-08T08:12:33.517Z,18.72
2022-12-08T08:15:01.944Z,18.30
2022-12-08T08:17:29.714Z,18.40
2022-12-08T08:19:57.517Z,18.12
2022-12-08T08:22:25.514Z,18.50
2022-12-08T08:24:53.255Z,18.77
2022-12-08T08:27:21.852Z,17.77
2022-12-08T08:29:48.893Z,16.15
2022-12-08T08:32:16.010Z,18.09
2022-12-08T08:34:43.989Z,18.74
2022-12-08T08:37:11.293Z,17.80
2022-12-08T08:39:38.571Z,18.66
2022-12-08T08:42:05.913Z,15.21
2022-12-08T08:44:34.512Z,11.46
2022-12-08T08:47:01.650Z,12.77
2022-12-08T08:49:28.873Z,12.45
2022-12-08T08:51:56.052Z,11.85
2022-12-08T08:54:23.193Z,11.77
2022-12-08T08:56:50.417Z,13.96
2022-12-08T08:59:17.510Z,14.40
2022-12-08T09:01:46.548Z,13.21
2022-12-08T09:04:13.845Z,12.95
2022-12-08T09:06:41.063Z,12.70
2022-12-08T09:09:08.250Z,12.70
2022-12-08T09:11:35.470Z,12.20
2022-12-08T09:14:02.790Z,14.89
2022-12-08T09:16:30.302Z,16.34
2022-12-08T09:18:59.073Z,17.40
2022-12-08T09:21:26.830Z,19.15
2022-12-08T09:23:56.774Z,19.20
2022-12-08T09:26:25.270Z,19.71
2022-12-08T09:28:54.310Z,19.34
2022-12-08T09:31:23.003Z,19.58
2022-12-08T09:33:51.151Z,18.98
2022-12-08T09:36:20.631Z,18.52
2022-12-08T09:38:48.155Z,18.27
2022-12-08T09:41:20.958Z,18.42
2022-12-08T09:44:07.258Z,18.23
2022-12-08T09:46:36.089Z,17.47
2022-12-08T09:49:11.658Z,18.12
2022-12-08T09:51:45.191Z,18.45
2022-12-08T09:54:20.440Z,18.63
2022-12-08T09:56:52.344Z,18.81
2022-12-08T09:59:26.009Z,19.12
2022-12-08T10:01:54.951Z,19.17
2022-12-08T10:04:27.273Z,18.59
2022-12-08T10:07:04.108Z,18.60
2022-12-08T10:09:40.190Z,18.20
2022-12-08T10:12:20.078Z,18.52
2022-12-08T10:14:58.168Z,18.88
2022-12-08T10:17:30.828Z,19.10
2022-12-08T10:20:03.054Z,18.81
2022-12-08T10:22:38.749Z,18.18
2022-12-08T10:25:18.060Z,19.11
2022-12-08T10:27:49.516Z,18.68
2022-12-08T10:30:19.439Z,18.99
2022-12-08T10:32:50.479Z,18.74
2022-12-08T10:35:21.105Z,19.10
2022-12-08T10:37:58.161Z,19.47
2022-12-08T10:40:29.216Z,18.73
2022-12-08T10:42:59.465Z,18.91
2022-12-08T10:45:30.475Z,18.82
2022-12-08T10:48:02.147Z,18.57
2022-12-08T10:50:33.049Z,18.70
2022-12-08T10:53:11.461Z,18.82
2022-12-08T10:55:43.193Z,18.62
2022-12-08T10:58:32.167Z,17.93
2022-12-08T11:01:05.424Z,18.27
2022-12-08T11:03:37.790Z,18.09
2022-12-08T11:06:15.171Z,19.02
2022-12-08T11:08:55.830Z,18.09
2022-12-08T11:11:38.820Z,18.70
2022-12-08T11:14:08.702Z,18.74
2022-12-08T11:16:36.648Z,20.24
2022-12-08T11:19:05.667Z,18.46
2022-12-08T11:21:38.068Z,17.87
2022-12-08T11:24:23.008Z,18.81
2022-12-08T11:26:54.268Z,20.24
2022-12-08T11:29:22.162Z,19.26
2022-12-08T11:31:55.198Z,18.27
2022-12-08T11:34:34.556Z,18.72
2022-12-08T11:37:05.207Z,19.15
2022-12-08T11:39:44.417Z,18.55
2022-12-08T11:42:20.573Z,18.77
2022-12-08T11:44:56.752Z,18.48
2022-12-08T11:47:30.862Z,18.61
2022-12-08T11:50:16.643Z,18.50
2022-12-08T11:52:50.928Z,18.44
2022-12-08T11:55:37.057Z,18.81
2022-12-08T11:58:18.870Z,18.78
2022-12-08T12:00:46.646Z,19.68
2022-12-08T12:03:25.340Z,18.54
2022-12-08T12:06:38.286Z,19.37
2022-12-08T12:09:16.853Z,20.42
2022-12-08T12:12:01.926Z,18.56
2022-12-08T12:14:55.086Z,18.84
2022-12-08T12:17:40.175Z,18.87
2022-12-08T12:20:17.925Z,18.31
2022-12-08T12:22:51.846Z,18.10
2022-12-08T12:25:23.047Z,17.76
2022-12-08T12:27:57.525Z,17.08
2022-12-08T12:30:27.855Z,18.20
2022-12-08T12:32:59.374Z,17.12
2022-12-08T12:35:34.504Z,17.42
2022-12-08T12:38:08.106Z,17.35
2022-12-08T12:40:42.268Z,17.10
2022-12-08T12:43:30.054Z,16.69
2022-12-08T12:46:33.599Z,17.43
2022-12-08T12:49:34.083Z,17.12
2022-12-08T12:52:01.382Z,17.17
2022-12-08T12:54:29.481Z,16.83
2022-12-08T12:57:15.942Z,8.37
2022-12-08T12:59:53.229Z,12.56
2022-12-08T13:02:26.213Z,16.12
2022-12-08T13:05:02.166Z,16.23
2022-12-08T13:07:33.193Z,17.11
2022-12-08T13:10:11.283Z,16.76
2022-12-08T13:12:38.656Z,15.95
2022-12-08T13:15:18.423Z,16.53
2022-12-08T13:17:49.333Z,17.47
2022-12-08T13:20:22.322Z,16.15
2022-12-08T13:23:25.144Z,16.33
2022-12-08T13:26:20.923Z,16.27
2022-12-08T13:29:17.575Z,15.96
2022-12-08T13:31:51.230Z,15.74
2022-12-08T13:34:36.784Z,15.42
2022-12-08T13:37:22.238Z,15.90
2022-12-08T13:39:53.898Z,15.52
2022-12-08T13:42:30.662Z,15.40
2022-12-08T13:45:22.292Z,15.88
2022-12-08T13:48:22.120Z,15.97
2022-12-08T13:52:47.980Z,17.65
2022-12-08T13:57:05.124Z,15.42
2022-12-08T13:59:33.402Z,15.16
2022-12-08T14:02:05.622Z,15.36
2022-12-08T14:04:54.437Z,15.19
2022-12-08T14:07:21.703Z,15.52
2022-12-08T14:09:49.703Z,15.39
2022-12-08T14:12:22.065Z,15.29
2022-12-08T14:15:08.323Z,15.23
2022-12-08T14:17:35.643Z,15.86
2022-12-08T14:20:23.343Z,15.12
2022-12-08T14:22:52.545Z,13.92
2022-12-08T14:25:20.607Z,13.73
2022-12-08T14:27:49.160Z,14.62
2022-12-08T14:30:21.086Z,16.50
2022-12-08T14:32:50.783Z,16.02
2022-12-08T14:35:24.485Z,16.73
2022-12-08T14:37:56.495Z,17.15
2022-12-08T14:40:28.142Z,16.98
2022-12-08T14:43:13.444Z,16.28
2022-12-08T14:45:49.064Z,16.42
2022-12-08T14:48:23.467Z,16.39
2022-12-08T14:51:04.566Z,16.04
2022-12-08T14:53:40.501Z,16.79
2022-12-08T14:56:16.548Z,16.59
2022-12-08T14:58:43.988Z,15.78
2022-12-08T15:01:15.362Z,15.88
2022-12-08T15:03:50.436Z,16.17
2022-12-08T15:06:21.477Z,15.63
2022-12-08T15:08:55.184Z,15.74
2022-12-08T15:11:31.439Z,15.76
2022-12-08T15:13:59.427Z,16.35
2022-12-08T15:16:30.506Z,15.77
2022-12-08T15:19:17.745Z,15.18
2022-12-08T15:21:47.729Z,15.21
2022-12-08T15:24:16.565Z,15.67
2022-12-08T15:26:47.523Z,15.15
2022-12-08T15:29:21.264Z,14.43
2022-12-08T15:31:48.944Z,15.48
2022-12-08T15:34:16.202Z,15.44
2022-12-08T15:36:43.383Z,15.84
2022-12-08T15:39:29.023Z,15.72
2022-12-08T15:41:56.182Z,14.73
2022-12-08T15:44:23.384Z,15.18
2022-12-08T15:46:51.483Z,15.13
2022-12-08T15:49:21.382Z,15.64
2022-12-08T15:51:49.422Z,15.78
2022-12-08T15:54:18.427Z,15.67
2022-12-08T15:57:17.847Z,15.50
2022-12-08T15:59:37.054Z,15.77
2022-12-08T16:02:04.360Z,15.38
2022-12-08T16:07:25.071Z,16.20
2022-12-08T16:09:55.353Z,16.07
2022-12-08T16:12:24.967Z,15.86
2022-12-08T16:17:40.882Z,17.21
2022-12-08T16:20:13.468Z,16.64
2022-12-08T16:22:54.532Z,17.52
2022-12-08T16:25:46.299Z,17.83
2022-12-08T16:28:52.254Z,17.90
2022-12-08T16:31:07.569Z,17.35
2022-12-08T16:33:38.083Z,17.81
2022-12-08T16:36:05.642Z,17.50
2022-12-08T16:38:35.146Z,16.73
2022-12-08T16:41:04.474Z,18.25
2022-12-08T16:43:32.558Z,18.19
2022-12-08T16:46:00.221Z,18.07
2022-12-08T16:48:27.703Z,17.45
2022-12-08T16:50:54.939Z,17.82
2022-12-08T16:53:23.096Z,17.77
2022-12-08T16:55:51.044Z,17.81
2022-12-08T16:58:19.802Z,17.18
2022-12-08T17:00:47.096Z,18.16
2022-12-08T17:03:15.881Z,19.09
2022-12-08T17:05:43.623Z,18.74
2022-12-08T17:08:10.940Z,19.11
2022-12-08T17:10:40.185Z,19.69
2022-12-08T17:13:08.761Z,19.19
2022-12-08T17:15:37.395Z,19.48
2022-12-08T17:18:05.525Z,19.07
2022-12-08T17:20:32.763Z,19.05
2022-12-08T17:22:59.922Z,18.38
2022-12-08T17:25:27.626Z,19.04
2022-12-08T17:27:55.243Z,19.44
2022-12-08T17:30:22.383Z,18.66
2022-12-08T17:32:51.386Z,18.59
2022-12-08T17:35:18.982Z,18.95
2022-12-08T17:37:46.202Z,18.88
2022-12-08T17:40:13.583Z,18.86
2022-12-08T17:42:40.869Z,19.10
2022-12-08T17:45:09.163Z,18.84
2022-12-08T17:47:37.122Z,19.24
2022-12-08T17:50:08.678Z,18.72
2022-12-08T17:52:36.907Z,18.61
2022-12-08T17:55:05.001Z,18.03
2022-12-08T17:57:32.323Z,19.04
2022-12-08T17:59:59.396Z,19.28
2022-12-08T18:02:26.683Z,19.69
2022-12-08T18:04:53.996Z,19.44
2022-12-08T18:07:22.596Z,19.12
2022-12-08T18:09:49.837Z,19.54
2022-12-08T18:12:22.258Z,19.75
2022-12-08T18:14:51.036Z,20.07
2022-12-08T18:17:18.361Z,19.77
2022-12-08T18:19:46.537Z,19.50
2022-12-08T18:22:13.738Z,19.24
2022-12-08T18:24:43.741Z,19.35
2022-12-08T18:27:10.877Z,19.78
2022-12-08T18:29:38.157Z,19.46
2022-12-08T18:32:05.402Z,19.51
2022-12-08T18:34:32.611Z,20.02
2022-12-08T18:36:59.833Z,20.69
2022-12-08T18:39:31.699Z,23.37
2022-12-08T18:42:01.098Z,21.05
2022-12-08T18:44:29.336Z,19.63
2022-12-08T18:46:56.961Z,20.95
2022-12-08T18:49:24.270Z,20.03
2022-12-08T18:51:51.618Z,20.02
2022-12-08T18:54:21.982Z,19.59
2022-12-08T18:56:51.572Z,20.23
2022-12-08T18:59:20.173Z,19.79
2022-12-08T19:01:47.275Z,19.68
2022-12-08T19:04:31.233Z,20.16
2022-12-08T19:07:00.817Z,19.98
2022-12-08T19:09:28.173Z,19.96
2022-12-08T19:11:56.071Z,19.76
2022-12-08T19:14:28.193Z,19.81
2022-12-08T19:16:56.668Z,20.70
2022-12-08T19:19:23.918Z,20.57
2022-12-08T19:21:51.073Z,20.33
2022-12-08T19:24:18.815Z,20.08
2022-12-08T19:26:46.413Z,20.66
2022-12-08T19:29:14.392Z,20.86
2022-12-08T19:31:43.117Z,19.79
2022-12-08T19:34:11.979Z,20.02
2022-12-08T19:36:39.339Z,19.84
2022-12-08T19:39:06.694Z,20.03
2022-12-08T19:41:35.970Z,20.93
2022-12-08T19:44:03.185Z,22.19
2022-12-08T19:46:32.568Z,22.80
2022-12-08T19:49:03.360Z,22.31
2022-12-08T19:51:30.660Z,21.09
2022-12-08T19:53:57.809Z,20.45
2022-12-08T19:56:24.940Z,20.20
2022-12-08T19:58:52.901Z,17.85
2022-12-08T20:01:20.177Z,9.15
2022-12-08T20:03:47.464Z,13.01
2022-12-08T20:06:19.018Z,18.12
2022-12-08T20:08:50.354Z,22.35
2022-12-08T20:11:19.380Z,19.05
2022-12-08T20:13:46.689Z,20.60
2022-12-08T20:16:15.766Z,20.64
2022-12-08T20:18:43.751Z,19.90
2022-12-08T20:21:12.610Z,22.32
2022-12-08T20:23:41.388Z,22.30
2022-12-08T20:26:12.000Z,20.63
2022-12-08T20:28:39.740Z,19.84
2022-12-08T20:31:07.075Z,19.49
2022-12-08T20:33:34.531Z,19.54
2022-12-08T20:36:05.143Z,20.13
2022-12-08T20:38:32.352Z,19.76
2022-12-08T20:41:01.059Z,19.50
2022-12-08T20:43:28.742Z,20.16
2022-12-08T20:45:55.905Z,19.92
2022-12-08T20:48:23.065Z,20.41
2022-12-08T20:50:51.069Z,19.74
2022-12-08T20:53:18.437Z,21.16
2022-12-08T20:55:45.733Z,20.96
2022-12-08T20:58:14.466Z,20.67
2022-12-08T21:00:42.634Z,21.02
2022-12-08T21:03:09.994Z,20.44
2022-12-08T21:05:37.694Z,19.82
2022-12-08T21:08:05.595Z,20.88
2022-12-08T21:10:36.791Z,19.75
2022-12-08T21:13:06.493Z,19.96
2022-12-08T21:15:35.646Z,24.41
2022-12-08T21:18:03.058Z,25.30
2022-12-08T21:20:30.469Z,23.45
2022-12-08T21:22:57.902Z,20.84
2022-12-08T21:25:25.265Z,18.60
2022-12-08T21:27:52.614Z,19.69
2022-12-08T21:30:20.276Z,22.03
2022-12-08T21:32:49.059Z,22.01
2022-12-08T21:35:16.744Z,19.70
2022-12-08T21:37:43.909Z,20.10
2022-12-08T21:40:13.192Z,20.19
2022-12-08T21:42:40.650Z,21.31
2022-12-08T21:45:10.048Z,21.68
2022-12-08T21:47:37.703Z,21.64
2022-12-08T21:50:09.312Z,21.59
2022-12-08T21:52:38.543Z,21.77
2022-12-08T21:55:07.622Z,21.65
2022-12-08T21:57:35.317Z,21.08
2022-12-08T22:00:02.644Z,20.93
2022-12-08T22:02:29.977Z,21.10
2022-12-08T22:04:57.543Z,21.40
2022-12-08T22:07:26.624Z,21.17
2022-12-08T22:09:54.216Z,21.14
2022-12-08T22:12:21.531Z,21.65
2022-12-08T22:14:48.640Z,21.84
2022-12-08T22:17:15.925Z,21.28
2022-12-08T22:19:43.659Z,21.81
2022-12-08T22:22:10.956Z,22.01
2022-12-08T22:24:39.787Z,22.19
2022-12-08T22:27:07.107Z,21.59
2022-12-08T22:29:34.475Z,20.83
2022-12-08T22:32:01.669Z,21.55
2022-12-08T22:34:29.082Z,21.42
2022-12-08T22:36:56.305Z,21.98
2022-12-08T22:39:23.437Z,22.40
2022-12-08T22:41:51.988Z,22.24
2022-12-08T22:44:19.138Z,22.65
2022-12-08T22:46:46.561Z,22.39
2022-12-08T22:49:13.962Z,24.01
2022-12-08T22:51:41.238Z,24.87
2022-12-08T22:54:10.753Z,24.80
2022-12-08T22:56:38.495Z,23.38
2022-12-08T22:59:07.911Z,24.37
2022-12-08T23:01:35.114Z,24.65
2022-12-08T23:04:03.120Z,24.18
2022-12-08T23:06:31.156Z,23.62
2022-12-08T23:08:59.409Z,23.10
2022-12-08T23:11:31.877Z,23.09
2022-12-08T23:13:59.721Z,23.86
2022-12-08T23:16:28.796Z,23.42
2022-12-08T23:18:56.540Z,23.24
2022-12-08T23:21:23.962Z,23.83
2022-12-08T23:23:51.091Z,23.71
2022-12-08T23:26:21.179Z,23.89
2022-12-08T23:28:48.728Z,23.70
2022-12-08T23:31:17.014Z,23.66
2022-12-08T23:33:46.264Z,24.11
2022-12-08T23:36:15.519Z,23.21
2022-12-08T23:38:43.298Z,23.81
2022-12-08T23:41:12.679Z,23.68
2022-12-08T23:43:44.359Z,23.25
2022-12-08T23:46:12.189Z,23.54
2022-12-08T23:48:40.543Z,23.64
2022-12-08T23:51:10.123Z,23.95
2022-12-08T23:53:37.782Z,23.08
2022-12-08T23:56:08.366Z,23.50
2022-12-08T23:58:36.645Z,23.78
